sensor_id;sensor_type;location;lat;lon;timestamp;P1;durP1;ratioP1;P2;durP2;ratioP2
34725;SDS011;20951;50.818;4.344;2023-06-01T00:00:04;17.27;;;9.95;;
34725;SDS011;20951;50.818;4.344;2023-06-01T00:02:34;14.65;;;9.77;;
34725;SDS011;20951;50.818;4.344;2023-06-01T00:05:00;15.93;;;9.65;;
34725;SDS011;20951;50.818;4.344;2023-06-01T00:07:27;16.92;;;10.07;;
34725;SDS011;20951;50.818;4.344;2023-06-01T00:09:55;15.63;;;10.25;;
34725;SDS011;20951;50.818;4.344;2023-06-01T00:12:21;18.40;;;10.38;;
34725;SDS011;20951;50.818;4.344;2023-06-01T00:14:55;22.02;;;10.80;;
34725;SDS011;20951;50.818;4.344;2023-06-01T00:17:26;18.88;;;10.48;;
34725;SDS011;20951;50.818;4.344;2023-06-01T00:19:56;13.98;;;9.70;;
34725;SDS011;20951;50.818;4.344;2023-06-01T00:22:27;16.92;;;10.48;;
34725;SDS011;20951;50.818;4.344;2023-06-01T00:24:59;17.75;;;10.35;;
34725;SDS011;20951;50.818;4.344;2023-06-01T00:27:29;18.15;;;10.35;;
34725;SDS011;20951;50.818;4.344;2023-06-01T00:30:02;18.58;;;11.10;;
34725;SDS011;20951;50.818;4.344;2023-06-01T00:32:34;18.98;;;10.95;;
34725;SDS011;20951;50.818;4.344;2023-06-01T00:35:06;18.25;;;11.38;;
34725;SDS011;20951;50.818;4.344;2023-06-01T00:37:37;17.52;;;10.57;;
34725;SDS011;20951;50.818;4.344;2023-06-01T00:40:08;18.80;;;11.20;;
34725;SDS011;20951;50.818;4.344;2023-06-01T00:42:39;17.88;;;10.90;;
34725;SDS011;20951;50.818;4.344;2023-06-01T00:45:10;16.13;;;10.82;;
34725;SDS011;20951;50.818;4.344;2023-06-01T00:47:42;16.15;;;10.45;;
34725;SDS011;20951;50.818;4.344;2023-06-01T00:50:14;16.98;;;11.57;;
34725;SDS011;20951;50.818;4.344;2023-06-01T00:52:45;17.27;;;11.25;;
34725;SDS011;20951;50.818;4.344;2023-06-01T00:55:19;15.25;;;10.68;;
34725;SDS011;20951;50.818;4.344;2023-06-01T00:57:49;15.70;;;10.73;;
34725;SDS011;20951;50.818;4.344;2023-06-01T01:00:21;20.05;;;11.25;;
34725;SDS011;20951;50.818;4.344;2023-06-01T01:02:53;17.70;;;11.38;;
34725;SDS011;20951;50.818;4.344;2023-06-01T01:05:33;18.77;;;11.02;;
34725;SDS011;20951;50.818;4.344;2023-06-01T01:11:19;16.63;;;10.90;;
34725;SDS011;20951;50.818;4.344;2023-06-01T01:16:43;14.48;;;10.65;;
34725;SDS011;20951;50.818;4.344;2023-06-01T01:21:49;16.75;;;11.38;;
34725;SDS011;20951;50.818;4.344;2023-06-01T01:25:03;16.48;;;11.82;;
34725;SDS011;20951;50.818;4.344;2023-06-01T01:27:39;19.65;;;12.27;;
34725;SDS011;20951;50.818;4.344;2023-06-01T01:30:20;20.02;;;12.10;;
34725;SDS011;20951;50.818;4.344;2023-06-01T01:32:49;17.73;;;12.30;;
34725;SDS011;20951;50.818;4.344;2023-06-01T01:35:16;15.38;;;12.35;;
34725;SDS011;20951;50.818;4.344;2023-06-01T01:37:53;19.17;;;13.00;;
34725;SDS011;20951;50.818;4.344;2023-06-01T01:40:22;18.73;;;12.07;;
34725;SDS011;20951;50.818;4.344;2023-06-01T01:42:52;18.70;;;12.43;;
34725;SDS011;20951;50.818;4.344;2023-06-01T01:45:19;18.90;;;12.68;;
34725;SDS011;20951;50.818;4.344;2023-06-01T01:50:32;21.40;;;12.88;;
34725;SDS011;20951;50.818;4.344;2023-06-01T01:53:04;19.75;;;13.07;;
34725;SDS011;20951;50.818;4.344;2023-06-01T01:55:32;17.55;;;12.60;;
34725;SDS011;20951;50.818;4.344;2023-06-01T01:57:59;19.75;;;12.38;;
34725;SDS011;20951;50.818;4.344;2023-06-01T02:00:28;19.77;;;13.50;;
34725;SDS011;20951;50.818;4.344;2023-06-01T02:02:55;21.10;;;13.30;;
34725;SDS011;20951;50.818;4.344;2023-06-01T02:05:21;21.10;;;13.88;;
34725;SDS011;20951;50.818;4.344;2023-06-01T02:07:47;21.17;;;13.20;;
34725;SDS011;20951;50.818;4.344;2023-06-01T02:10:13;19.88;;;13.48;;
34725;SDS011;20951;50.818;4.344;2023-06-01T02:12:39;18.60;;;13.70;;
34725;SDS011;20951;50.818;4.344;2023-06-01T02:15:06;18.73;;;13.32;;
34725;SDS011;20951;50.818;4.344;2023-06-01T02:17:32;21.20;;;13.68;;
34725;SDS011;20951;50.818;4.344;2023-06-01T02:19:58;21.10;;;14.02;;
34725;SDS011;20951;50.818;4.344;2023-06-01T02:22:24;23.13;;;13.25;;
34725;SDS011;20951;50.818;4.344;2023-06-01T02:24:50;18.90;;;13.73;;
34725;SDS011;20951;50.818;4.344;2023-06-01T02:27:16;23.95;;;13.95;;
34725;SDS011;20951;50.818;4.344;2023-06-01T02:29:42;22.95;;;14.13;;
34725;SDS011;20951;50.818;4.344;2023-06-01T02:32:08;18.83;;;14.25;;
34725;SDS011;20951;50.818;4.344;2023-06-01T02:34:34;18.55;;;14.15;;
34725;SDS011;20951;50.818;4.344;2023-06-01T02:37:02;20.13;;;14.40;;
34725;SDS011;20951;50.818;4.344;2023-06-01T02:39:29;20.23;;;14.13;;
34725;SDS011;20951;50.818;4.344;2023-06-01T02:41:55;20.48;;;14.40;;
34725;SDS011;20951;50.818;4.344;2023-06-01T02:44:21;23.67;;;14.48;;
34725;SDS011;20951;50.818;4.344;2023-06-01T02:46:47;21.42;;;15.13;;
34725;SDS011;20951;50.818;4.344;2023-06-01T02:49:13;20.92;;;14.18;;
34725;SDS011;20951;50.818;4.344;2023-06-01T02:51:39;21.25;;;14.57;;
34725;SDS011;20951;50.818;4.344;2023-06-01T02:54:05;21.55;;;15.23;;
34725;SDS011;20951;50.818;4.344;2023-06-01T02:56:31;24.58;;;15.85;;
34725;SDS011;20951;50.818;4.344;2023-06-01T02:58:57;25.52;;;15.80;;
34725;SDS011;20951;50.818;4.344;2023-06-01T03:01:24;24.08;;;15.35;;
34725;SDS011;20951;50.818;4.344;2023-06-01T03:03:51;21.88;;;15.55;;
34725;SDS011;20951;50.818;4.344;2023-06-01T03:06:17;21.58;;;15.82;;
34725;SDS011;20951;50.818;4.344;2023-06-01T03:08:46;22.42;;;14.80;;
34725;SDS011;20951;50.818;4.344;2023-06-01T03:11:12;24.67;;;17.42;;
34725;SDS011;20951;50.818;4.344;2023-06-01T03:13:38;27.88;;;17.33;;
34725;SDS011;20951;50.818;4.344;2023-06-01T03:16:05;28.17;;;17.60;;
34725;SDS011;20951;50.818;4.344;2023-06-01T03:18:31;23.10;;;17.10;;
34725;SDS011;20951;50.818;4.344;2023-06-01T03:20:57;24.73;;;17.95;;
34725;SDS011;20951;50.818;4.344;2023-06-01T03:23:23;28.25;;;17.30;;
34725;SDS011;20951;50.818;4.344;2023-06-01T03:25:54;30.40;;;18.23;;
34725;SDS011;20951;50.818;4.344;2023-06-01T03:28:26;27.17;;;17.88;;
34725;SDS011;20951;50.818;4.344;2023-06-01T03:30:57;27.42;;;17.77;;
34725;SDS011;20951;50.818;4.344;2023-06-01T03:33:27;25.55;;;17.95;;
34725;SDS011;20951;50.818;4.344;2023-06-01T03:35:57;29.15;;;18.45;;
34725;SDS011;20951;50.818;4.344;2023-06-01T03:38:27;24.35;;;18.02;;
34725;SDS011;20951;50.818;4.344;2023-06-01T03:40:57;28.27;;;19.30;;
34725;SDS011;20951;50.818;4.344;2023-06-01T03:43:27;29.15;;;19.83;;
34725;SDS011;20951;50.818;4.344;2023-06-01T03:45:57;29.08;;;19.50;;
34725;SDS011;20951;50.818;4.344;2023-06-01T03:48:28;31.05;;;19.02;;
34725;SDS011;20951;50.818;4.344;2023-06-01T03:50:58;28.58;;;19.40;;
34725;SDS011;20951;50.818;4.344;2023-06-01T03:53:29;37.83;;;20.48;;
34725;SDS011;20951;50.818;4.344;2023-06-01T03:56:00;30.00;;;19.48;;
34725;SDS011;20951;50.818;4.344;2023-06-01T03:58:31;27.00;;;20.08;;
34725;SDS011;20951;50.818;4.344;2023-06-01T04:01:02;30.52;;;20.20;;
34725;SDS011;20951;50.818;4.344;2023-06-01T04:03:32;30.35;;;19.67;;
34725;SDS011;20951;50.818;4.344;2023-06-01T04:06:03;28.70;;;19.80;;
34725;SDS011;20951;50.818;4.344;2023-06-01T04:08:37;34.10;;;20.02;;
34725;SDS011;20951;50.818;4.344;2023-06-01T04:11:13;29.15;;;20.83;;
34725;SDS011;20951;50.818;4.344;2023-06-01T04:13:43;29.52;;;20.13;;
34725;SDS011;20951;50.818;4.344;2023-06-01T04:16:14;29.70;;;19.55;;
34725;SDS011;20951;50.818;4.344;2023-06-01T04:18:44;29.05;;;19.90;;
34725;SDS011;20951;50.818;4.344;2023-06-01T04:21:15;26.65;;;19.55;;
34725;SDS011;20951;50.818;4.344;2023-06-01T04:23:50;28.13;;;19.75;;
34725;SDS011;20951;50.818;4.344;2023-06-01T04:26:22;29.33;;;19.98;;
34725;SDS011;20951;50.818;4.344;2023-06-01T04:29:00;29.08;;;20.45;;
34725;SDS011;20951;50.818;4.344;2023-06-01T04:31:32;30.20;;;20.48;;
34725;SDS011;20951;50.818;4.344;2023-06-01T04:34:04;27.95;;;20.45;;
34725;SDS011;20951;50.818;4.344;2023-06-01T04:36:35;29.30;;;20.75;;
34725;SDS011;20951;50.818;4.344;2023-06-01T04:39:05;29.23;;;20.13;;
34725;SDS011;20951;50.818;4.344;2023-06-01T04:41:38;28.10;;;20.55;;
34725;SDS011;20951;50.818;4.344;2023-06-01T04:44:11;27.52;;;19.85;;
34725;SDS011;20951;50.818;4.344;2023-06-01T04:46:43;28.73;;;21.02;;
34725;SDS011;20951;50.818;4.344;2023-06-01T04:49:16;30.23;;;20.27;;
34725;SDS011;20951;50.818;4.344;2023-06-01T04:51:51;31.85;;;20.33;;
34725;SDS011;20951;50.818;4.344;2023-06-01T04:54:24;29.40;;;20.60;;
34725;SDS011;20951;50.818;4.344;2023-06-01T04:56:54;28.52;;;20.67;;
34725;SDS011;20951;50.818;4.344;2023-06-01T04:59:25;31.90;;;21.73;;
34725;SDS011;20951;50.818;4.344;2023-06-01T05:01:55;31.35;;;20.67;;
34725;SDS011;20951;50.818;4.344;2023-06-01T05:04:25;27.77;;;20.02;;
34725;SDS011;20951;50.818;4.344;2023-06-01T05:06:55;29.92;;;21.02;;
34725;SDS011;20951;50.818;4.344;2023-06-01T05:09:26;33.33;;;22.13;;
34725;SDS011;20951;50.818;4.344;2023-06-01T05:11:57;33.75;;;22.60;;
34725;SDS011;20951;50.818;4.344;2023-06-01T05:14:28;31.88;;;22.40;;
34725;SDS011;20951;50.818;4.344;2023-06-01T05:16:58;34.05;;;21.75;;
34725;SDS011;20951;50.818;4.344;2023-06-01T05:19:29;32.40;;;21.15;;
34725;SDS011;20951;50.818;4.344;2023-06-01T05:22:00;31.77;;;21.63;;
34725;SDS011;20951;50.818;4.344;2023-06-01T05:24:30;33.25;;;22.33;;
34725;SDS011;20951;50.818;4.344;2023-06-01T05:27:01;33.15;;;22.92;;
34725;SDS011;20951;50.818;4.344;2023-06-01T05:29:30;34.50;;;22.50;;
34725;SDS011;20951;50.818;4.344;2023-06-01T05:31:56;37.78;;;23.73;;
34725;SDS011;20951;50.818;4.344;2023-06-01T05:34:22;30.13;;;22.35;;
34725;SDS011;20951;50.818;4.344;2023-06-01T05:36:48;35.67;;;24.73;;
34725;SDS011;20951;50.818;4.344;2023-06-01T05:39:14;34.45;;;24.83;;
34725;SDS011;20951;50.818;4.344;2023-06-01T05:41:40;35.20;;;24.70;;
34725;SDS011;20951;50.818;4.344;2023-06-01T05:44:06;38.22;;;26.02;;
34725;SDS011;20951;50.818;4.344;2023-06-01T05:46:32;36.85;;;25.50;;
34725;SDS011;20951;50.818;4.344;2023-06-01T05:48:58;36.53;;;25.70;;
34725;SDS011;20951;50.818;4.344;2023-06-01T05:51:24;35.97;;;24.35;;
34725;SDS011;20951;50.818;4.344;2023-06-01T05:53:50;39.78;;;27.38;;
34725;SDS011;20951;50.818;4.344;2023-06-01T05:56:16;36.90;;;26.08;;
34725;SDS011;20951;50.818;4.344;2023-06-01T05:58:43;36.13;;;25.50;;
34725;SDS011;20951;50.818;4.344;2023-06-01T06:01:09;37.50;;;26.15;;
34725;SDS011;20951;50.818;4.344;2023-06-01T06:03:35;40.05;;;25.10;;
34725;SDS011;20951;50.818;4.344;2023-06-01T06:06:01;35.17;;;24.98;;
34725;SDS011;20951;50.818;4.344;2023-06-01T06:08:27;38.08;;;25.42;;
34725;SDS011;20951;50.818;4.344;2023-06-01T06:10:54;38.03;;;25.98;;
34725;SDS011;20951;50.818;4.344;2023-06-01T06:13:20;40.05;;;27.50;;
34725;SDS011;20951;50.818;4.344;2023-06-01T06:15:45;40.15;;;24.95;;
34725;SDS011;20951;50.818;4.344;2023-06-01T06:18:11;43.03;;;26.33;;
34725;SDS011;20951;50.818;4.344;2023-06-01T06:20:37;33.95;;;26.05;;
34725;SDS011;20951;50.818;4.344;2023-06-01T06:23:03;34.03;;;25.30;;
34725;SDS011;20951;50.818;4.344;2023-06-01T06:25:29;36.63;;;25.25;;
34725;SDS011;20951;50.818;4.344;2023-06-01T06:27:55;39.00;;;25.30;;
34725;SDS011;20951;50.818;4.344;2023-06-01T06:30:22;35.33;;;26.25;;
34725;SDS011;20951;50.818;4.344;2023-06-01T06:32:49;39.38;;;26.35;;
34725;SDS011;20951;50.818;4.344;2023-06-01T06:35:15;34.50;;;25.77;;
34725;SDS011;20951;50.818;4.344;2023-06-01T06:37:41;35.70;;;26.08;;
34725;SDS011;20951;50.818;4.344;2023-06-01T06:40:08;38.22;;;25.83;;
34725;SDS011;20951;50.818;4.344;2023-06-01T06:42:35;34.65;;;25.70;;
34725;SDS011;20951;50.818;4.344;2023-06-01T06:45:01;37.78;;;25.98;;
34725;SDS011;20951;50.818;4.344;2023-06-01T06:47:27;32.55;;;25.42;;
34725;SDS011;20951;50.818;4.344;2023-06-01T06:49:53;34.58;;;25.55;;
34725;SDS011;20951;50.818;4.344;2023-06-01T06:52:19;38.85;;;25.40;;
34725;SDS011;20951;50.818;4.344;2023-06-01T06:54:45;38.67;;;25.52;;
34725;SDS011;20951;50.818;4.344;2023-06-01T06:57:10;34.95;;;25.65;;
34725;SDS011;20951;50.818;4.344;2023-06-01T06:59:37;35.90;;;25.90;;
34725;SDS011;20951;50.818;4.344;2023-06-01T07:02:03;30.23;;;25.45;;
34725;SDS011;20951;50.818;4.344;2023-06-01T07:04:29;33.53;;;25.67;;
34725;SDS011;20951;50.818;4.344;2023-06-01T07:06:55;34.58;;;25.65;;
34725;SDS011;20951;50.818;4.344;2023-06-01T07:09:21;31.35;;;24.77;;
34725;SDS011;20951;50.818;4.344;2023-06-01T07:11:47;33.88;;;26.38;;
34725;SDS011;20951;50.818;4.344;2023-06-01T07:14:13;35.13;;;25.85;;
34725;SDS011;20951;50.818;4.344;2023-06-01T07:16:39;32.15;;;24.70;;
34725;SDS011;20951;50.818;4.344;2023-06-01T07:19:06;32.28;;;24.00;;
34725;SDS011;20951;50.818;4.344;2023-06-01T07:21:32;28.48;;;23.23;;
34725;SDS011;20951;50.818;4.344;2023-06-01T07:23:58;28.92;;;22.73;;
34725;SDS011;20951;50.818;4.344;2023-06-01T07:26:23;28.70;;;22.83;;
34725;SDS011;20951;50.818;4.344;2023-06-01T07:28:52;30.33;;;22.73;;
34725;SDS011;20951;50.818;4.344;2023-06-01T07:31:21;28.60;;;22.35;;
34725;SDS011;20951;50.818;4.344;2023-06-01T07:33:47;29.25;;;20.90;;
34725;SDS011;20951;50.818;4.344;2023-06-01T07:36:13;24.13;;;20.58;;
34725;SDS011;20951;50.818;4.344;2023-06-01T07:38:40;26.55;;;21.70;;
34725;SDS011;20951;50.818;4.344;2023-06-01T07:41:08;24.23;;;20.27;;
34725;SDS011;20951;50.818;4.344;2023-06-01T07:43:36;25.25;;;20.10;;
34725;SDS011;20951;50.818;4.344;2023-06-01T07:46:03;25.30;;;19.65;;
34725;SDS011;20951;50.818;4.344;2023-06-01T07:48:29;24.73;;;19.63;;
34725;SDS011;20951;50.818;4.344;2023-06-01T07:51:01;22.92;;;18.55;;
34725;SDS011;20951;50.818;4.344;2023-06-01T07:53:31;20.67;;;17.83;;
34725;SDS011;20951;50.818;4.344;2023-06-01T07:55:57;22.10;;;17.33;;
34725;SDS011;20951;50.818;4.344;2023-06-01T07:58:23;19.42;;;17.30;;
34725;SDS011;20951;50.818;4.344;2023-06-01T08:00:48;20.80;;;16.25;;
34725;SDS011;20951;50.818;4.344;2023-06-01T08:03:14;19.63;;;17.10;;
34725;SDS011;20951;50.818;4.344;2023-06-01T08:05:40;19.70;;;16.83;;
34725;SDS011;20951;50.818;4.344;2023-06-01T08:08:09;20.77;;;17.27;;
34725;SDS011;20951;50.818;4.344;2023-06-01T08:10:35;20.02;;;17.33;;
34725;SDS011;20951;50.818;4.344;2023-06-01T08:13:04;20.40;;;17.48;;
34725;SDS011;20951;50.818;4.344;2023-06-01T08:15:32;22.35;;;18.10;;
34725;SDS011;20951;50.818;4.344;2023-06-01T08:17:59;21.77;;;18.42;;
34725;SDS011;20951;50.818;4.344;2023-06-01T08:20:25;21.40;;;17.02;;
34725;SDS011;20951;50.818;4.344;2023-06-01T08:22:54;20.10;;;17.17;;
34725;SDS011;20951;50.818;4.344;2023-06-01T08:25:20;21.02;;;17.17;;
34725;SDS011;20951;50.818;4.344;2023-06-01T08:27:48;22.95;;;17.33;;
34725;SDS011;20951;50.818;4.344;2023-06-01T08:30:14;20.80;;;16.15;;
34725;SDS011;20951;50.818;4.344;2023-06-01T08:32:40;23.15;;;16.30;;
34725;SDS011;20951;50.818;4.344;2023-06-01T08:35:07;20.67;;;17.23;;
34725;SDS011;20951;50.818;4.344;2023-06-01T08:37:33;26.20;;;17.60;;
34725;SDS011;20951;50.818;4.344;2023-06-01T08:40:00;25.13;;;17.55;;
34725;SDS011;20951;50.818;4.344;2023-06-01T08:45:07;22.10;;;17.17;;
34725;SDS011;20951;50.818;4.344;2023-06-01T08:47:34;23.38;;;17.75;;
34725;SDS011;20951;50.818;4.344;2023-06-01T08:50:03;24.48;;;17.98;;
34725;SDS011;20951;50.818;4.344;2023-06-01T08:52:29;22.98;;;18.40;;
34725;SDS011;20951;50.818;4.344;2023-06-01T08:54:59;21.35;;;17.90;;
34725;SDS011;20951;50.818;4.344;2023-06-01T08:57:27;20.85;;;17.58;;
34725;SDS011;20951;50.818;4.344;2023-06-01T08:59:54;19.23;;;16.88;;
34725;SDS011;20951;50.818;4.344;2023-06-01T09:02:20;22.90;;;16.30;;
34725;SDS011;20951;50.818;4.344;2023-06-01T09:04:46;20.67;;;16.33;;
34725;SDS011;20951;50.818;4.344;2023-06-01T09:07:13;21.10;;;15.38;;
34725;SDS011;20951;50.818;4.344;2023-06-01T09:09:39;19.60;;;15.75;;
34725;SDS011;20951;50.818;4.344;2023-06-01T09:14:49;19.42;;;15.60;;
34725;SDS011;20951;50.818;4.344;2023-06-01T09:17:22;22.42;;;16.27;;
34725;SDS011;20951;50.818;4.344;2023-06-01T09:19:55;18.70;;;16.15;;
34725;SDS011;20951;50.818;4.344;2023-06-01T09:22:21;20.38;;;15.02;;
34725;SDS011;20951;50.818;4.344;2023-06-01T09:24:59;17.33;;;15.52;;
34725;SDS011;20951;50.818;4.344;2023-06-01T09:27:25;19.25;;;16.73;;
34725;SDS011;20951;50.818;4.344;2023-06-01T09:29:52;18.92;;;15.13;;
34725;SDS011;20951;50.818;4.344;2023-06-01T09:32:24;18.25;;;14.18;;
34725;SDS011;20951;50.818;4.344;2023-06-01T09:34:50;21.00;;;14.77;;
34725;SDS011;20951;50.818;4.344;2023-06-01T09:37:16;18.33;;;13.65;;
34725;SDS011;20951;50.818;4.344;2023-06-01T09:39:42;16.15;;;14.02;;
34725;SDS011;20951;50.818;4.344;2023-06-01T09:42:08;19.90;;;15.25;;
34725;SDS011;20951;50.818;4.344;2023-06-01T09:47:06;21.45;;;14.32;;
34725;SDS011;20951;50.818;4.344;2023-06-01T09:49:39;22.73;;;15.30;;
34725;SDS011;20951;50.818;4.344;2023-06-01T09:54:36;34.72;;;14.93;;
34725;SDS011;20951;50.818;4.344;2023-06-01T09:57:04;16.80;;;14.98;;
34725;SDS011;20951;50.818;4.344;2023-06-01T10:02:21;17.45;;;14.95;;
34725;SDS011;20951;50.818;4.344;2023-06-01T10:04:52;17.52;;;14.30;;
34725;SDS011;20951;50.818;4.344;2023-06-01T10:07:22;19.35;;;14.32;;
34725;SDS011;20951;50.818;4.344;2023-06-01T10:09:49;20.08;;;13.65;;
34725;SDS011;20951;50.818;4.344;2023-06-01T10:12:18;15.27;;;13.10;;
34725;SDS011;20951;50.818;4.344;2023-06-01T10:14:44;15.50;;;12.23;;
34725;SDS011;20951;50.818;4.344;2023-06-01T10:17:10;15.48;;;13.05;;
34725;SDS011;20951;50.818;4.344;2023-06-01T10:19:37;22.10;;;13.45;;
34725;SDS011;20951;50.818;4.344;2023-06-01T10:22:03;18.13;;;12.68;;
34725;SDS011;20951;50.818;4.344;2023-06-01T10:24:31;18.10;;;11.98;;
34725;SDS011;20951;50.818;4.344;2023-06-01T10:26:59;14.95;;;12.13;;
34725;SDS011;20951;50.818;4.344;2023-06-01T10:29:46;16.38;;;13.70;;
34725;SDS011;20951;50.818;4.344;2023-06-01T10:35:09;17.73;;;12.13;;
34725;SDS011;20951;50.818;4.344;2023-06-01T10:40:41;17.65;;;12.10;;
34725;SDS011;20951;50.818;4.344;2023-06-01T10:43:54;16.60;;;12.18;;
34725;SDS011;20951;50.818;4.344;2023-06-01T10:46:00;16.88;;;11.90;;
34725;SDS011;20951;50.818;4.344;2023-06-01T10:51:19;17.42;;;12.82;;
34725;SDS011;20951;50.818;4.344;2023-06-01T10:53:45;16.67;;;13.00;;
34725;SDS011;20951;50.818;4.344;2023-06-01T10:56:24;14.90;;;12.13;;
34725;SDS011;20951;50.818;4.344;2023-06-01T11:01:39;18.83;;;12.75;;
34725;SDS011;20951;50.818;4.344;2023-06-01T11:04:06;20.77;;;12.95;;
34725;SDS011;20951;50.818;4.344;2023-06-01T11:06:34;23.50;;;13.82;;
34725;SDS011;20951;50.818;4.344;2023-06-01T11:09:02;18.15;;;13.05;;
34725;SDS011;20951;50.818;4.344;2023-06-01T11:14:20;18.20;;;12.40;;
34725;SDS011;20951;50.818;4.344;2023-06-01T11:16:51;22.60;;;13.00;;
34725;SDS011;20951;50.818;4.344;2023-06-01T11:19:18;21.30;;;13.02;;
34725;SDS011;20951;50.818;4.344;2023-06-01T11:22:09;18.17;;;12.80;;
34725;SDS011;20951;50.818;4.344;2023-06-01T11:24:37;17.67;;;12.75;;
34725;SDS011;20951;50.818;4.344;2023-06-01T11:27:07;14.40;;;12.90;;
34725;SDS011;20951;50.818;4.344;2023-06-01T11:29:35;18.77;;;13.65;;
34725;SDS011;20951;50.818;4.344;2023-06-01T11:32:02;22.50;;;13.75;;
34725;SDS011;20951;50.818;4.344;2023-06-01T11:37:04;18.10;;;12.68;;
34725;SDS011;20951;50.818;4.344;2023-06-01T11:39:30;20.60;;;12.48;;
34725;SDS011;20951;50.818;4.344;2023-06-01T11:42:11;18.73;;;12.68;;
34725;SDS011;20951;50.818;4.344;2023-06-01T11:44:44;18.30;;;13.45;;
34725;SDS011;20951;50.818;4.344;2023-06-01T11:47:20;23.05;;;14.45;;
34725;SDS011;20951;50.818;4.344;2023-06-01T11:49:49;19.75;;;14.07;;
34725;SDS011;20951;50.818;4.344;2023-06-01T11:52:16;16.20;;;13.93;;
34725;SDS011;20951;50.818;4.344;2023-06-01T11:54:43;17.35;;;13.63;;
34725;SDS011;20951;50.818;4.344;2023-06-01T11:57:09;16.08;;;13.35;;
34725;SDS011;20951;50.818;4.344;2023-06-01T11:59:39;20.25;;;14.00;;
34725;SDS011;20951;50.818;4.344;2023-06-01T12:02:19;18.48;;;13.38;;
34725;SDS011;20951;50.818;4.344;2023-06-01T12:04:55;19.00;;;14.07;;
34725;SDS011;20951;50.818;4.344;2023-06-01T12:07:27;16.95;;;13.82;;
34725;SDS011;20951;50.818;4.344;2023-06-01T12:09:53;22.42;;;13.63;;
34725;SDS011;20951;50.818;4.344;2023-06-01T12:12:23;17.63;;;13.02;;
34725;SDS011;20951;50.818;4.344;2023-06-01T12:14:50;24.85;;;14.80;;
34725;SDS011;20951;50.818;4.344;2023-06-01T12:17:17;21.65;;;13.60;;
34725;SDS011;20951;50.818;4.344;2023-06-01T12:19:44;26.77;;;14.15;;
34725;SDS011;20951;50.818;4.344;2023-06-01T12:22:12;21.33;;;14.10;;
34725;SDS011;20951;50.818;4.344;2023-06-01T12:24:38;16.77;;;13.15;;
34725;SDS011;20951;50.818;4.344;2023-06-01T12:27:11;17.25;;;13.68;;
34725;SDS011;20951;50.818;4.344;2023-06-01T12:29:47;18.95;;;12.75;;
34725;SDS011;20951;50.818;4.344;2023-06-01T12:32:15;21.00;;;11.82;;
34725;SDS011;20951;50.818;4.344;2023-06-01T12:34:43;21.90;;;12.98;;
34725;SDS011;20951;50.818;4.344;2023-06-01T12:37:19;20.20;;;12.85;;
34725;SDS011;20951;50.818;4.344;2023-06-01T12:39:52;22.00;;;13.97;;
34725;SDS011;20951;50.818;4.344;2023-06-01T12:42:19;20.85;;;13.70;;
34725;SDS011;20951;50.818;4.344;2023-06-01T12:44:59;18.00;;;13.90;;
34725;SDS011;20951;50.818;4.344;2023-06-01T12:47:25;24.90;;;14.40;;
34725;SDS011;20951;50.818;4.344;2023-06-01T12:50:01;21.88;;;14.70;;
34725;SDS011;20951;50.818;4.344;2023-06-01T12:52:34;18.47;;;13.07;;
34725;SDS011;20951;50.818;4.344;2023-06-01T12:55:00;18.52;;;12.90;;
34725;SDS011;20951;50.818;4.344;2023-06-01T12:57:28;18.88;;;13.52;;
34725;SDS011;20951;50.818;4.344;2023-06-01T12:59:55;21.55;;;13.27;;
34725;SDS011;20951;50.818;4.344;2023-06-01T13:02:21;24.88;;;12.85;;
34725;SDS011;20951;50.818;4.344;2023-06-01T13:04:49;22.63;;;12.82;;
34725;SDS011;20951;50.818;4.344;2023-06-01T13:07:15;17.92;;;11.63;;
34725;SDS011;20951;50.818;4.344;2023-06-01T13:09:41;19.58;;;11.77;;
34725;SDS011;20951;50.818;4.344;2023-06-01T13:12:07;18.80;;;10.95;;
34725;SDS011;20951;50.818;4.344;2023-06-01T13:14:34;20.88;;;11.57;;
34725;SDS011;20951;50.818;4.344;2023-06-01T13:17:01;21.33;;;12.30;;
34725;SDS011;20951;50.818;4.344;2023-06-01T13:19:30;21.05;;;11.80;;
34725;SDS011;20951;50.818;4.344;2023-06-01T13:21:56;15.35;;;10.40;;
34725;SDS011;20951;50.818;4.344;2023-06-01T13:24:22;21.33;;;12.82;;
34725;SDS011;20951;50.818;4.344;2023-06-01T13:26:48;18.33;;;11.13;;
34725;SDS011;20951;50.818;4.344;2023-06-01T13:29:14;16.60;;;11.18;;
34725;SDS011;20951;50.818;4.344;2023-06-01T13:31:40;15.25;;;10.98;;
34725;SDS011;20951;50.818;4.344;2023-06-01T13:34:06;15.32;;;12.32;;
34725;SDS011;20951;50.818;4.344;2023-06-01T13:36:32;15.40;;;10.82;;
34725;SDS011;20951;50.818;4.344;2023-06-01T13:38:58;16.17;;;11.85;;
34725;SDS011;20951;50.818;4.344;2023-06-01T13:41:26;14.55;;;9.50;;
34725;SDS011;20951;50.818;4.344;2023-06-01T13:43:51;17.17;;;10.27;;
34725;SDS011;20951;50.818;4.344;2023-06-01T13:46:17;16.92;;;10.88;;
34725;SDS011;20951;50.818;4.344;2023-06-01T13:48:43;16.75;;;8.85;;
34725;SDS011;20951;50.818;4.344;2023-06-01T13:51:09;15.82;;;10.32;;
34725;SDS011;20951;50.818;4.344;2023-06-01T13:53:35;16.25;;;10.00;;
34725;SDS011;20951;50.818;4.344;2023-06-01T13:56:01;16.98;;;10.07;;
34725;SDS011;20951;50.818;4.344;2023-06-01T13:58:28;14.48;;;9.52;;
34725;SDS011;20951;50.818;4.344;2023-06-01T14:00:54;14.23;;;9.45;;
34725;SDS011;20951;50.818;4.344;2023-06-01T14:03:20;13.45;;;8.48;;
34725;SDS011;20951;50.818;4.344;2023-06-01T14:05:46;14.98;;;8.68;;
34725;SDS011;20951;50.818;4.344;2023-06-01T14:08:12;17.77;;;7.85;;
34725;SDS011;20951;50.818;4.344;2023-06-01T14:10:37;14.52;;;8.95;;
34725;SDS011;20951;50.818;4.344;2023-06-01T14:13:03;12.27;;;8.77;;
34725;SDS011;20951;50.818;4.344;2023-06-01T14:15:29;14.55;;;9.05;;
34725;SDS011;20951;50.818;4.344;2023-06-01T14:17:55;14.18;;;8.02;;
34725;SDS011;20951;50.818;4.344;2023-06-01T14:20:21;13.45;;;8.38;;
34725;SDS011;20951;50.818;4.344;2023-06-01T14:22:47;10.90;;;7.13;;
34725;SDS011;20951;50.818;4.344;2023-06-01T14:25:13;15.18;;;7.95;;
34725;SDS011;20951;50.818;4.344;2023-06-01T14:27:39;10.90;;;7.15;;
34725;SDS011;20951;50.818;4.344;2023-06-01T14:30:05;12.52;;;6.47;;
34725;SDS011;20951;50.818;4.344;2023-06-01T14:32:32;13.68;;;7.20;;
34725;SDS011;20951;50.818;4.344;2023-06-01T14:34:57;10.45;;;6.43;;
34725;SDS011;20951;50.818;4.344;2023-06-01T14:37:23;13.35;;;6.38;;
34725;SDS011;20951;50.818;4.344;2023-06-01T14:39:51;12.40;;;7.20;;
34725;SDS011;20951;50.818;4.344;2023-06-01T14:42:17;10.98;;;6.30;;
34725;SDS011;20951;50.818;4.344;2023-06-01T14:44:43;13.88;;;6.40;;
34725;SDS011;20951;50.818;4.344;2023-06-01T14:47:09;13.75;;;6.30;;
34725;SDS011;20951;50.818;4.344;2023-06-01T14:49:40;11.93;;;6.93;;
34725;SDS011;20951;50.818;4.344;2023-06-01T14:52:15;12.93;;;7.20;;
34725;SDS011;20951;50.818;4.344;2023-06-01T14:54:47;14.70;;;7.60;;
34725;SDS011;20951;50.818;4.344;2023-06-01T14:57:18;14.50;;;7.00;;
34725;SDS011;20951;50.818;4.344;2023-06-01T14:59:45;12.18;;;7.65;;
34725;SDS011;20951;50.818;4.344;2023-06-01T15:02:11;14.65;;;6.90;;
34725;SDS011;20951;50.818;4.344;2023-06-01T15:04:37;13.80;;;6.45;;
34725;SDS011;20951;50.818;4.344;2023-06-01T15:07:03;13.85;;;6.43;;
34725;SDS011;20951;50.818;4.344;2023-06-01T15:09:30;13.52;;;6.90;;
34725;SDS011;20951;50.818;4.344;2023-06-01T15:11:56;13.13;;;6.47;;